• Join FlightAware (Why Join?)
  • Login
  • US Flag 
06:10AM EST


 

Airport Tracker/Info


-or-


 

Live Flight TrackerFlight Track Log ✈ GJS3710 ✈ 14-Jun-2013 ✈ KORD - KALB

Flight Track Log - Related Links

Times and Time Zones

All times are in EDT time to prevent confusion due to time zone crossing. See the GJS3710 flight status page for this flight to view local times or setup timezone preferences in your user account.

Time Position Orientation Groundspeed Altitude Reporting Facility
EDT Latitude Longitude Course Direction KTS MPH feet Rate Location/Type
07:55PM 42.0000 -87.8833 66° East 143 165 1,800  Level Chicago TRACON
07:56PM 42.0167 -87.8167 71° East 207 238 3,400 1,800 Climbing Chicago TRACON
07:57PM 42.0167 -87.7167 90° East 266 306 5,500 1,980 Climbing Chicago TRACON
07:57PM 42.0128 -87.7097 127° Southeast 222 255 5,900 2,220 Climbing Chicago Center
07:58PM 42.1659 -87.3523 66° East  Level FlightAware Approximate
07:58PM 42.0200 -87.5994 85° East 283 326 8,400  Level Chicago Center
07:59PM 42.2133 -87.2102 66° East  Level FlightAware Approximate
07:59PM 42.0647 -87.5061 57° Northeast 299 344 11,200  Level Chicago Center
08:00PM 42.2607 -87.0679 66° East  Level FlightAware Approximate
08:00PM 42.1169 -87.3886 59° Northeast 308 354 13,300  Level Chicago Center
08:01PM 42.1236 -87.2536 86° East 356 410 14,800 1,620 Climbing Chicago Center
08:02PM 42.1322 -87.1111 85° East 377 434 16,700 1,740 Climbing Chicago Center
08:03PM 42.1333 -86.9639 89° East 393 452 18,400 1,620 Climbing Chicago Center
08:04PM 42.1336 -86.8136 90° East 404 465 20,100 1,740 Climbing Chicago Center
08:05PM 42.1344 -86.6333 90° East 414 476 22,000 1,680 Climbing Chicago Center
08:06PM 42.1347 -86.4758 90° East 420 483 23,600 1,440 Climbing Chicago Center
08:07PM 42.1347 -86.3156 90° East 425 489 25,000 1,200 Climbing Chicago Center
08:08PM 42.1342 -86.1517 90° East 435 501 26,200 1,200 Climbing Chicago Center
08:09PM 42.1222 -85.9622 95° East 451 519 27,600 1,200 Climbing Chicago Center
08:10PM 42.1086 -85.7933 96° East 455 524 28,800 960 Climbing Chicago Center
08:11PM 42.0969 -85.6200 95° East 463 533 29,700 960 Climbing Chicago Center
08:12PM 42.0850 -85.4447 95° East 473 544 30,800 960 Climbing Chicago Center
08:13PM 42.0731 -85.2689 95° East 478 550 31,800 900 Climbing Chicago Center
08:14PM 42.0586 -85.0536 95° East 483 556 32,700 720 Climbing Chicago Center
08:16PM 42.0578 -84.8775 90° East 476 548 33,400 540 Climbing Chicago Center
08:17PM 42.0758 -84.7033 82° East 473 544 33,900 540 Climbing Chicago Center
08:18PM 42.0939 -84.5269 82° East 476 548 34,600 720 Climbing Chicago Center
08:18PM 42.1125 -84.3594 81° East 475 547 35,300 720 Climbing Cleveland Center
08:19PM 42.1239 -84.1978 85° East 475 547 36,000 600 Climbing Cleveland Center
08:20PM 42.1419 -84.0194 82° East 480 552 36,500 480 Climbing Cleveland Center
08:21PM 42.1575 -83.8436 83° East 480 552 37,000 480 Climbing Cleveland Center
08:22PM 42.1731 -83.6625 83° East 480 552 37,500 480 Climbing Cleveland Center
08:23PM 42.1908 -83.4586 83° East 487 560 38,000 480 Climbing Cleveland Center
08:24PM 42.2097 -83.2772 82° East 489 563 38,500 480 Climbing Cleveland Center
08:25PM 42.2244 -83.0900 84° East 494 568 39,000 240 Climbing Cleveland Center
08:26PM 42.2386 -82.9111 84° East 494 568 39,000  Level Cleveland Center
08:27PM 42.2567 -82.7322 82° East 489 563 39,000  Level Cleveland Center
08:28PM 42.2683 -82.5528 85° East 479 551 39,000  Level Cleveland Center
08:29PM 42.2836 -82.3794 83° East 479 551 39,000  Level Cleveland Center
08:30PM 42.2986 -82.2000 83° East 479 551 39,000  Level Cleveland Center
08:31PM 42.3114 -82.0433 84° East 479 551 39,000  Level Cleveland Center
08:32PM 42.3258 -81.8667 84° East 479 551 39,000  Level Cleveland Center
08:33PM 42.3383 -81.6814 85° East 479 551 39,000  Level Cleveland Center
08:34PM 42.3525 -81.4878 84° East 479 551 39,000  Level Cleveland Center
08:35PM 42.3661 -81.3111 84° East 479 551 39,000  Level Cleveland Center
08:36PM 42.3797 -81.1314 84° East 479 551 39,000  Level Cleveland Center
08:37PM 42.3908 -80.9542 85° East 479 551 39,000  Level Cleveland Center
08:38PM 42.4039 -80.7772 84° East 479 551 39,000  Level Cleveland Center
08:39PM 42.4144 -80.5972 85° East 479 551 39,000  Level Cleveland Center
08:40PM 42.4247 -80.4200 85° East 473 544 39,000  Level Cleveland Center
08:41PM 42.4347 -80.2625 85° East 473 544 39,000  Level Cleveland Center
08:42PM 42.4444 -80.0853 86° East 473 544 39,000  Level Cleveland Center
08:43PM 42.4581 -79.8908 85° East 473 544 39,000  Level Cleveland Center
08:44PM 42.4656 -79.7331 86° East 468 539 39,000  Level Cleveland Center
08:45PM 42.4808 -79.5614 83° East 463 533 39,000 -240 Level Cleveland Center
08:46PM 42.4875 -79.3867 87° East 477 549 38,600 -720 Descending Cleveland Center
08:47PM 42.4939 -79.2119 87° East 467 537 37,600 -1,080 Descending Cleveland Center
08:48PM 42.5083 -79.0369 84° East 457 526 36,500 -1,080 Descending Cleveland Center
08:49PM 42.5183 -78.8706 85° East 457 526 35,500 -1,080 Descending Cleveland Center
08:50PM 42.5303 -78.6956 85° East 457 526 34,400 -1,200 Descending Cleveland Center
08:51PM 42.5439 -78.5175 84° East 468 539 33,100 -1,020 Descending Cleveland Center
08:52PM 42.5531 -78.3453 86° East 468 539 32,400 -900 Descending Cleveland Center
08:53PM 42.5664 -78.1756 84° East 460 529 31,400 -1,020 Descending Cleveland Center
08:54PM 42.5753 -78.0006 86° East 455 524 30,400 -1,020 Descending Cleveland Center
08:55PM 42.5836 -77.8281 86° East 461 531 29,400 -720 Descending Cleveland Center
08:56PM 42.5958 -77.6497 85° East 466 536 29,000 -240 Descending Cleveland Center
08:57PM 42.6061 -77.4800 85° East 461 531 29,000  Level Cleveland Center
08:58PM 42.6153 -77.2875 86° East 461 531 29,000  Level Cleveland Center
08:59PM 42.6250 -77.1150 86° East 461 531 29,000  Level Cleveland Center
09:00PM 42.6267 -77.0772 87° East 464 534 29,000  Level Boston Center
09:01PM 42.6358 -76.9028 86° East 464 534 29,000  Level Boston Center
09:02PM 42.6447 -76.7283 86° East 464 534 29,000  Level Boston Center
09:03PM 42.6531 -76.5539 86° East 459 528 29,000 -120 Level Boston Center
09:04PM 42.6614 -76.3792 86° East 459 528 28,800 -1,020 Descending Boston Center
09:05PM 42.6719 -76.1906 86° East 459 528 27,000 -1,800 Descending Boston Center
09:06PM 42.6756 -76.0186 88° East 459 528 25,300 -1,740 Descending Boston Center
09:07PM 42.6844 -75.8581 86° East 448 516 23,600 -1,680 Descending Boston Center
09:08PM 42.6917 -75.6889 87° East 443 510 22,000 -1,560 Descending Boston Center
09:09PM 42.6961 -75.5253 88° East 437 503 20,500 -1,560 Descending Boston Center
09:10PM 42.7047 -75.3617 86° East 432 497 18,900 -1,620 Descending Boston Center
09:11PM 42.7089 -75.1981 88° East 432 497 17,300 -1,620 Descending Boston Center
09:12PM 42.7144 -75.0428 87° East 432 497 15,700 -1,680 Descending Boston Center
09:12PM 42.7164 -74.9581 88° East 415 478 14,700 -1,500 Descending Boston Center
09:13PM 42.7178 -74.8903 88° East 409 471 14,200 -1,500 Descending Boston Center
09:14PM 42.7222 -74.7775 87° East 391 450 12,900 -1,380 Descending Boston Center
09:15PM 42.7253 -74.6278 88° East 385 443 11,800 -960 Descending Boston Center
09:16PM 42.7319 -74.4894 86° East 383 441 11,000 -780 Descending Boston Center
09:17PM 42.7072 -74.3642 105° East 321 369 10,300 -1,020 Descending Boston Center
09:18PM 42.6775 -74.2617 111° Southeast 282 325 9,000 -1,440 Descending Boston Center
09:19PM 42.6500 -74.1619 111° Southeast 279 321 7,500 -1,620 Descending Boston Center
09:20PM 42.6244 -74.0569 108° East 271 312 5,800 -1,620 Descending Boston Center
09:21PM 42.5964 -73.9631 112° Southeast 270 311 4,300 -1,260 Descending Boston Center
09:22PM 42.5747 -73.8781 109° East 238 274 3,300 -960 Descending Boston Center
09:23PM 42.5925 -73.7908 74° East 200 230 2,300 -660 Descending Boston Center
09:24PM 42.6422 -73.8033 350° North 159 183 2,000 -360 Descending Boston Center